Time;durP1;ratioP1;P1;durP2;ratioP2;P2;SDS_P1;SDS_P2;PMS_P1;PMS_P2;Temp;Humidity;BMP_temperature;BMP_pressure;BME280_temperature;BME280_humidity;BME280_pressure;Samples;Min_cycle;Max_cycle;Signal;HPM_P1;HPM_P2
2022/02/24 00:03:02;;;;;;;3.38;2.28;;;-2.10;99.90;;;;;;5072166;28;20052;-61
2022/02/24 00:06:27;;;;;;;6.70;2.40;;;-2.20;99.90;;;;;;5072340;28;20033;-61
2022/02/24 00:09:52;;;;;;;4.88;2.13;;;-2.30;99.90;;;;;;5072152;28;20024;-61
2022/02/24 00:13:18;;;;;;;7.82;3.00;;;-2.30;99.90;;;;;;5072204;28;20090;-60
2022/02/24 00:16:43;;;;;;;5.90;2.80;;;-2.30;99.90;;;;;;5072033;28;20043;-60
2022/02/24 00:20:09;;;;;;;5.32;2.25;;;-2.20;99.90;;;;;;5071870;28;20056;-60
2022/02/24 00:23:34;;;;;;;4.13;2.15;;;-2.20;99.90;;;;;;5071423;28;20052;-60
2022/02/24 00:26:59;;;;;;;4.68;2.22;;;-2.20;99.90;;;;;;5070693;28;20472;-60
2022/02/24 00:30:25;;;;;;;8.65;2.40;;;-2.30;99.90;;;;;;5070592;28;20040;-60
2022/02/24 00:33:50;;;;;;;7.32;2.05;;;-2.30;99.90;;;;;;5070365;28;20036;-61
2022/02/24 00:37:16;;;;;;;4.88;1.95;;;-2.30;99.90;;;;;;5070254;28;20120;-60
2022/02/24 00:40:41;;;;;;;7.63;2.75;;;-2.30;99.90;;;;;;5070319;28;20032;-59
2022/02/24 00:44:06;;;;;;;10.10;2.67;;;-2.20;99.90;;;;;;5070490;28;20032;-59
2022/02/24 00:47:32;;;;;;;3.47;1.90;;;-2.10;99.90;;;;;;5070434;28;20037;-59
2022/02/24 00:50:57;;;;;;;3.95;1.55;;;-2.00;99.90;;;;;;5070316;28;20039;-59
2022/02/24 00:54:22;;;;;;;8.30;2.25;;;-2.00;99.90;;;;;;5070181;28;20396;-59
2022/02/24 00:57:48;;;;;;;5.25;1.92;;;-1.90;99.90;;;;;;5070233;28;20054;-59
2022/02/24 01:01:13;;;;;;;4.82;1.60;;;-1.90;99.90;;;;;;5069994;28;20411;-60
2022/02/24 01:04:38;;;;;;;6.35;2.50;;;-1.90;99.90;;;;;;5070022;28;20025;-59
2022/02/24 01:08:04;;;;;;;10.23;2.17;;;-2.00;99.90;;;;;;5069959;28;20037;-59
2022/02/24 01:11:29;;;;;;;5.57;1.98;;;-2.10;99.90;;;;;;5069840;28;20044;-59
2022/02/24 01:14:55;;;;;;;5.00;2.10;;;-2.10;99.90;;;;;;5069665;28;20039;-59
2022/02/24 01:18:20;;;;;;;8.13;2.35;;;-2.10;99.90;;;;;;5069583;28;20054;-59
2022/02/24 01:21:45;;;;;;;4.53;2.20;;;-2.20;99.90;;;;;;5069590;28;20040;-59
2022/02/24 01:25:11;;;;;;;6.10;1.77;;;-2.10;99.90;;;;;;4543458;28;15038768;-59
2022/02/24 01:28:36;;;;;;;6.00;2.22;;;-2.10;99.90;;;;;;5070561;28;20047;-59
2022/02/24 01:32:01;;;;;;;5.93;2.33;;;-2.00;99.90;;;;;;5070451;28;20477;-59
2022/02/24 01:35:27;;;;;;;6.88;2.70;;;-2.00;99.90;;;;;;5070597;28;20045;-59
2022/02/24 01:38:52;;;;;;;8.85;2.30;;;-1.90;99.90;;;;;;5069985;28;20072;-59
2022/02/24 01:42:17;;;;;;;4.28;2.30;;;-1.90;99.90;;;;;;5090517;28;20040;-59
2022/02/24 01:45:43;;;;;;;5.25;1.67;;;-1.90;99.90;;;;;;5071754;28;20572;-59
2022/02/24 01:49:08;;;;;;;9.60;2.88;;;-1.80;99.90;;;;;;5068181;28;20024;-59
2022/02/24 01:52:34;;;;;;;7.88;2.15;;;-1.80;99.90;;;;;;5069691;28;20127;-59
2022/02/24 01:55:59;;;;;;;11.15;2.83;;;-1.80;99.90;;;;;;5068132;28;20041;-59
2022/02/24 01:59:24;;;;;;;9.38;2.40;;;-1.70;99.90;;;;;;5068098;28;20032;-59
2022/02/24 02:02:50;;;;;;;7.18;1.58;;;-1.80;99.90;;;;;;5069654;28;20437;-59
2022/02/24 02:06:15;;;;;;;6.53;2.47;;;-1.80;99.90;;;;;;5049840;28;20029;-59
2022/02/24 02:09:40;;;;;;;3.38;1.60;;;-1.80;99.90;;;;;;5056091;28;20487;-59
2022/02/24 02:13:06;;;;;;;3.70;1.95;;;-1.80;99.90;;;;;;5069676;28;20172;-59
2022/02/24 02:16:31;;;;;;;6.47;3.17;;;-1.80;99.90;;;;;;5049745;28;20504;-59
2022/02/24 02:19:56;;;;;;;7.93;3.05;;;-1.70;99.90;;;;;;5058191;28;20123;-59
2022/02/24 02:23:22;;;;;;;7.32;2.80;;;-1.70;99.90;;;;;;5069317;28;20060;-59
2022/02/24 02:26:49;;;;;;;7.13;3.38;;;-1.60;99.90;;;;;;5049526;28;20036;-59
2022/02/24 02:30:13;;;;;;;5.50;2.70;;;-1.40;99.90;;;;;;5059973;28;20044;-59
2022/02/24 02:33:38;;;;;;;8.65;3.70;;;-1.40;99.90;;;;;;5049010;28;20033;-59
2022/02/24 02:37:03;;;;;;;8.95;4.07;;;-1.20;99.90;;;;;;5053471;28;20040;-59
2022/02/24 02:40:29;;;;;;;11.40;3.25;;;-1.10;99.90;;;;;;5069168;28;20472;-59
2022/02/24 02:43:54;;;;;;;12.98;3.63;;;-1.10;99.90;;;;;;5077870;28;20047;-59
2022/02/24 02:47:19;;;;;;;8.05;3.38;;;-1.10;99.90;;;;;;5066686;28;20517;-59
2022/02/24 02:50:45;;;;;;;11.60;2.78;;;-1.20;99.90;;;;;;5077993;28;20043;-59
2022/02/24 02:54:10;;;;;;;4.65;2.72;;;-1.30;99.90;;;;;;5079688;28;20531;-59
2022/02/24 02:57:36;;;;;;;5.53;2.10;;;-1.40;99.90;;;;;;5064189;28;20040;-59
2022/02/24 03:01:01;;;;;;;6.68;2.58;;;-1.30;99.90;;;;;;5077807;28;20531;-59
2022/02/24 03:04:26;;;;;;;8.05;3.60;;;-1.40;99.90;;;;;;5083146;28;20036;-59
2022/02/24 03:07:52;;;;;;;5.30;2.33;;;-1.40;99.90;;;;;;5067604;28;20028;-59
2022/02/24 03:11:17;;;;;;;9.60;2.75;;;-1.50;99.90;;;;;;5083202;28;20109;-58
2022/02/24 03:14:42;;;;;;;5.53;3.03;;;-1.50;99.90;;;;;;5088718;28;20036;-58
2022/02/24 03:18:08;;;;;;;7.82;3.55;;;-1.50;99.90;;;;;;5078781;28;20749;-59
2022/02/24 03:21:33;;;;;;;8.10;3.22;;;-1.40;99.90;;;;;;5075390;28;20133;-59
2022/02/24 03:24:58;;;;;;;5.68;3.30;;;-1.30;99.90;;;;;;5088389;28;20050;-59
2022/02/24 03:28:24;;;;;;;9.82;3.10;;;-1.20;99.90;;;;;;5083375;28;20036;-59
2022/02/24 03:31:49;;;;;;;14.90;3.85;;;-1.20;99.90;;;;;;5075496;28;20039;-59
2022/02/24 03:35:15;;;;;;;13.82;4.53;;;-1.10;99.90;;;;;;5048516;28;20037;-59
2022/02/24 03:38:40;;;;;;;9.60;3.25;;;-0.90;99.90;;;;;;5077553;28;20036;-59
2022/02/24 03:42:05;;;;;;;9.05;3.05;;;-1.00;99.90;;;;;;5067934;28;20055;-59
2022/02/24 03:45:31;;;;;;;3.90;2.85;;;-1.20;99.90;;;;;;5081327;28;20081;-59
2022/02/24 03:48:56;;;;;;;10.38;3.53;;;-1.20;99.90;;;;;;5077410;28;20408;-59
2022/02/24 03:52:21;;;;;;;6.95;3.30;;;-1.20;99.90;;;;;;5071518;28;20036;-59
2022/02/24 03:55:47;;;;;;;9.23;2.83;;;-1.20;99.90;;;;;;5077238;28;20036;-59
2022/02/24 03:59:12;;;;;;;14.23;3.78;;;-1.10;99.90;;;;;;5080500;28;20040;-59
2022/02/24 04:02:38;;;;;;;12.88;4.88;;;-1.00;99.90;;;;;;5063164;28;20530;-59
2022/02/24 04:06:03;;;;;;;6.03;2.88;;;-1.00;99.90;;;;;;5084834;28;20035;-59
2022/02/24 04:09:28;;;;;;;11.80;3.35;;;-1.00;99.90;;;;;;5082158;28;20494;-59
2022/02/24 04:12:54;;;;;;;10.45;3.85;;;-1.10;99.90;;;;;;5066759;28;20036;-59
2022/02/24 04:16:19;;;;;;;10.02;3.08;;;-1.00;99.90;;;;;;5075967;28;20036;-59
2022/02/24 04:19:44;;;;;;;8.68;3.13;;;-1.10;99.90;;;;;;5051881;28;20055;-59
2022/02/24 04:23:10;;;;;;;8.02;3.42;;;-1.10;99.90;;;;;;5070569;28;20058;-58
2022/02/24 04:26:35;;;;;;;7.82;3.90;;;-1.00;99.90;;;;;;5089822;28;20043;-59
2022/02/24 04:30:00;;;;;;;10.57;4.10;;;-0.80;99.90;;;;;;5091820;28;20039;-59
2022/02/24 04:33:26;;;;;;;10.75;3.80;;;-0.80;99.90;;;;;;5087165;28;20508;-59
2022/02/24 04:36:52;;;;;;;10.57;3.53;;;-0.70;99.90;;;;;;5086262;28;20035;-59
2022/02/24 04:40:17;;;;;;;10.40;3.38;;;-0.70;99.90;;;;;;5051400;28;20079;-58
2022/02/24 04:43:42;;;;;;;13.90;3.90;;;-0.70;99.90;;;;;;5086014;28;20407;-61
2022/02/24 04:46:27;;;;;;;15.82;3.97;;;-0.50;99.90;;;;;;5085811;28;20035;-62
2022/02/24 04:48:53;;;;;;;14.95;4.05;;;-0.50;99.90;;;;;;5073513;28;20540;-62
2022/02/24 04:51:18;;;;;;;18.02;4.70;;;-0.40;99.90;;;;;;5089398;28;20028;-62
2022/02/24 04:53:44;;;;;;;10.88;4.53;;;-0.30;99.90;;;;;;5091628;28;20024;-62
2022/02/24 04:56:09;;;;;;;14.35;3.67;;;-0.20;99.90;;;;;;5089358;28;20055;-62
2022/02/24 04:58:35;;;;;;;13.13;4.45;;;-0.20;99.90;;;;;;5091447;28;20222;-61
2022/02/24 05:01:01;;;;;;;9.50;3.67;;;0.00;99.90;;;;;;5089392;28;20123;-62
2022/02/24 05:03:26;;;;;;;9.98;3.40;;;0.10;99.90;;;;;;5091356;28;20108;-62
2022/02/24 05:05:51;;;;;;;11.80;3.55;;;0.20;99.90;;;;;;5089341;28;20061;-62
2022/02/24 05:08:17;;;;;;;6.78;3.53;;;0.30;99.90;;;;;;5091173;28;20024;-62
2022/02/24 05:11:22;;;;;;;11.57;4.28;;;0.30;99.90;;;;;;5071100;28;20040;-62
2022/02/24 05:14:48;;;;;;;11.90;3.55;;;0.40;99.90;;;;;;5091000;28;20056;-62
2022/02/24 05:18:13;;;;;;;8.15;2.80;;;0.40;99.90;;;;;;5079715;28;20051;-62
2022/02/24 05:21:38;;;;;;;8.55;3.08;;;0.40;99.90;;;;;;5085325;28;20048;-63
2022/02/24 05:25:04;;;;;;;13.90;3.00;;;0.20;99.90;;;;;;5083919;28;20092;-62
2022/02/24 05:28:29;;;;;;;7.53;2.58;;;0.20;99.90;;;;;;5078407;28;20388;-62
2022/02/24 05:31:54;;;;;;;4.47;3.03;;;0.20;99.90;;;;;;5073292;28;20032;-61
2022/02/24 05:35:20;;;;;;;6.97;2.92;;;0.20;99.90;;;;;;5079464;28;20039;-62
2022/02/24 05:38:45;;;;;;;8.65;3.28;;;0.20;99.90;;;;;;5079507;28;20028;-62
2022/02/24 05:42:11;;;;;;;12.93;3.10;;;0.30;99.90;;;;;;5065209;28;20080;-63
2022/02/24 05:45:36;;;;;;;15.40;5.38;;;0.30;99.90;;;;;;5078995;28;20442;-62
2022/02/24 05:49:01;;;;;;;7.55;3.00;;;0.30;99.90;;;;;;5084811;28;20123;-62
2022/02/24 05:52:27;;;;;;;8.88;3.03;;;0.40;99.90;;;;;;5060647;28;20049;-61
2022/02/24 05:55:52;;;;;;;11.02;2.70;;;0.30;99.90;;;;;;5050265;28;20095;-62
2022/02/24 05:59:17;;;;;;;11.32;3.65;;;0.30;99.90;;;;;;5079675;28;20043;-62
2022/02/24 06:02:43;;;;;;;10.35;2.95;;;0.30;99.90;;;;;;5076838;28;20079;-62
2022/02/24 06:06:08;;;;;;;13.98;3.22;;;0.30;99.90;;;;;;5050103;28;20144;-62
2022/02/24 06:09:33;;;;;;;14.23;3.28;;;0.30;99.90;;;;;;5066611;28;20040;-62
2022/02/24 06:12:59;;;;;;;10.93;3.00;;;0.50;99.90;;;;;;5084370;28;20024;-61
2022/02/24 06:16:24;;;;;;;11.00;4.00;;;0.60;99.90;;;;;;5049832;28;20045;-62
2022/02/24 06:19:50;;;;;;;6.32;2.88;;;0.80;99.90;;;;;;5082646;28;20123;-62
2022/02/24 06:23:15;;;;;;;12.05;2.78;;;1.00;99.90;;;;;;5069499;28;20044;-62
2022/02/24 06:26:40;;;;;;;11.65;2.97;;;1.20;99.90;;;;;;5078388;28;20039;-62
2022/02/24 06:30:06;;;;;;;7.60;3.45;;;1.20;99.90;;;;;;5078421;28;20031;-62
2022/02/24 06:33:31;;;;;;;5.45;2.38;;;1.50;99.90;;;;;;5067126;28;20473;-62
2022/02/24 06:36:56;;;;;;;6.93;2.83;;;1.80;99.90;;;;;;5085667;28;20036;-62
2022/02/24 06:40:22;;;;;;;7.95;2.85;;;2.10;99.90;;;;;;5077755;28;20036;-62
2022/02/24 06:43:47;;;;;;;14.10;4.18;;;2.30;99.90;;;;;;5064704;28;20045;-62
2022/02/24 06:47:12;;;;;;;15.15;3.35;;;2.60;99.90;;;;;;5085555;28;20569;-63
2022/02/24 06:50:38;;;;;;;7.18;2.60;;;3.10;99.90;;;;;;5077574;28;20043;-63
2022/02/24 06:54:03;;;;;;;7.53;2.58;;;4.10;99.90;;;;;;5062048;28;20102;-62
2022/02/24 06:57:28;;;;;;;11.30;3.30;;;4.00;99.90;;;;;;5075589;28;20044;-62
2022/02/24 07:00:54;;;;;;;7.45;2.33;;;3.60;99.90;;;;;;5048902;28;20064;-62
2022/02/24 07:04:19;;;;;;;5.40;2.72;;;3.70;99.90;;;;;;5079727;28;20409;-62
2022/02/24 07:07:45;;;;;;;4.85;1.65;;;3.80;99.90;;;;;;5069705;28;20031;-62
2022/02/24 07:11:10;;;;;;;4.63;1.70;;;6.40;99.90;;;;;;5076290;28;20404;-62
2022/02/24 07:14:35;;;;;;;7.30;2.40;;;5.60;98.50;;;;;;5084348;28;20050;-62
2022/02/24 07:18:01;;;;;;;4.07;2.08;;;5.30;99.90;;;;;;5067390;28;20032;-61
2022/02/24 07:21:26;;;;;;;6.50;2.85;;;6.30;94.90;;;;;;5084225;28;20048;-62
2022/02/24 07:24:52;;;;;;;6.18;2.05;;;5.40;94.80;;;;;;5087625;28;20077;-61
2022/02/24 07:28:17;;;;;;;5.78;1.88;;;5.00;99.30;;;;;;5075953;28;20074;-61
2022/02/24 07:31:42;;;;;;;5.63;2.63;;;4.70;99.90;;;;;;5074587;28;20548;-61
2022/02/24 07:35:08;;;;;;;7.38;2.83;;;4.40;99.90;;;;;;5047312;28;20115;-62
2022/02/24 07:38:33;;;;;;;4.93;2.08;;;4.30;99.90;;;;;;5064640;28;20041;-62
2022/02/24 07:41:58;;;;;;;3.97;2.10;;;4.10;99.90;;;;;;5079631;28;20135;-60
2022/02/24 07:45:27;;;;;;;3.58;2.10;;;4.10;99.90;;;;;;5087714;28;20032;-61
2022/02/24 07:48:53;;;;;;;10.10;2.78;;;4.10;99.90;;;;;;5080834;28;20040;-61
2022/02/24 07:52:17;;;;;;;4.82;1.73;;;4.10;99.90;;;;;;5083410;28;20040;-62
2022/02/24 07:55:43;;;;;;;6.80;2.15;;;4.10;99.90;;;;;;5051452;28;20091;-61
2022/02/24 07:59:08;;;;;;;5.10;1.67;;;4.10;99.90;;;;;;5080118;28;20039;-62
2022/02/24 08:02:34;;;;;;;3.75;1.80;;;4.10;99.90;;;;;;5067550;28;20044;-64
2022/02/24 08:05:59;;;;;;;8.18;2.15;;;4.20;99.90;;;;;;5087693;28;20036;-61
2022/02/24 08:09:24;;;;;;;6.05;1.77;;;4.10;99.90;;;;;;5080053;28;20104;-61
2022/02/24 08:12:50;;;;;;;7.38;1.98;;;4.10;99.90;;;;;;5071459;28;20031;-61
2022/02/24 08:16:15;;;;;;;4.90;1.50;;;4.10;99.90;;;;;;5087567;28;20043;-61
2022/02/24 08:19:42;;;;;;;9.65;2.35;;;4.20;99.90;;;;;;5079978;28;20484;-61
2022/02/24 08:23:06;;;;;;;3.88;1.63;;;4.30;99.90;;;;;;5063626;28;20041;-61
2022/02/24 08:26:31;;;;;;;6.75;2.42;;;4.40;99.90;;;;;;5088898;28;20039;-61
2022/02/24 08:29:57;;;;;;;6.28;1.80;;;4.60;99.90;;;;;;5090848;28;20113;-62
2022/02/24 08:33:22;;;;;;;5.93;1.83;;;4.80;99.90;;;;;;5069512;28;20044;-62
2022/02/24 08:36:47;;;;;;;2.85;1.52;;;5.20;99.90;;;;;;5077183;28;20035;-62
2022/02/24 08:40:13;;;;;;;6.43;2.20;;;5.40;97.90;;;;;;5090534;28;20675;-62
2022/02/24 08:43:38;;;;;;;6.70;2.25;;;5.60;96.00;;;;;;5077527;28;20056;-63
2022/02/24 08:47:03;;;;;;;4.97;1.80;;;5.90;94.80;;;;;;5077485;28;20733;-63
2022/02/24 08:50:29;;;;;;;7.30;2.50;;;6.10;94.10;;;;;;5078275;28;20101;-69
2022/02/24 08:53:54;;;;;;;6.43;2.42;;;6.40;98.40;;;;;;5087110;28;20119;-67
2022/02/24 08:57:20;;;;;;;8.77;2.80;;;7.00;92.10;;;;;;5070277;28;20382;-68
2022/02/24 09:00:47;;;;;;;5.25;2.17;;;8.20;81.60;;;;;;5079203;28;20046;-68
2022/02/24 09:04:10;;;;;;;7.38;2.08;;;8.70;73.10;;;;;;5077427;28;20384;-71
2022/02/24 09:07:36;;;;;;;6.35;2.30;;;9.00;71.70;;;;;;5084889;28;20046;-70
2022/02/24 09:11:01;;;;;;;4.80;1.80;;;10.50;57.90;;;;;;5079015;28;20054;-61
2022/02/24 09:14:26;;;;;;;4.43;1.80;;;11.20;55.60;;;;;;5078879;28;20040;-63
2022/02/24 09:17:52;;;;;;;5.43;1.67;;;10.70;52.10;;;;;;5070844;28;20052;-61
2022/02/24 09:21:17;;;;;;;5.53;1.90;;;10.20;60.50;;;;;;5086078;28;20614;-62
2022/02/24 09:24:42;;;;;;;5.47;2.05;;;9.90;58.30;;;;;;5078687;28;20048;-61
2022/02/24 09:28:08;;;;;;;7.07;2.20;;;9.90;56.80;;;;;;5062847;28;20553;-61
2022/02/24 09:31:34;;;;;;;6.45;2.95;;;11.30;51.50;;;;;;5076339;28;20127;-61
2022/02/24 09:34:59;;;;;;;6.82;2.25;;;13.40;36.40;;;;;;5089262;28;20104;-62
2022/02/24 09:38:25;;;;;;;3.90;1.98;;;14.20;29.20;;;;;;5079382;28;20404;-62
2022/02/24 09:41:49;;;;;;;5.53;1.77;;;15.20;29.20;;;;;;5075816;28;20125;-66
2022/02/24 09:45:15;;;;;;;4.55;1.95;;;14.70;27.20;;;;;;5049474;28;20037;-67
2022/02/24 09:48:43;;;;;;;6.45;2.00;;;13.60;26.90;;;;;;5084060;28;20116;-64
2022/02/24 09:52:08;;;;;;;6.22;1.90;;;12.90;38.00;;;;;;5076259;28;20583;-67
2022/02/24 09:55:34;;;;;;;5.10;2.05;;;12.50;35.80;;;;;;5049227;28;20128;-67
2022/02/24 09:59:00;;;;;;;4.95;1.90;;;12.50;36.80;;;;;;5083544;28;20028;-65
2022/02/24 10:02:24;;;;;;;6.07;2.45;;;12.20;36.70;;;;;;5082840;28;20047;-66
2022/02/24 10:05:50;;;;;;;3.83;1.80;;;12.00;43.40;;;;;;5085420;28;20094;-67
2022/02/24 10:09:15;;;;;;;2.78;1.88;;;11.90;39.00;;;;;;5077856;28;20073;-67
2022/02/24 10:12:46;;;;;;;5.32;2.50;;;11.80;39.70;;;;;;5065875;28;20044;-67
2022/02/24 10:16:12;;;;;;;6.25;2.47;;;11.50;41.20;;;;;;5077610;28;20071;-66
2022/02/24 10:19:39;;;;;;;8.68;2.45;;;11.20;42.70;;;;;;5077818;28;20036;-67
2022/02/24 10:23:03;;;;;;;4.90;1.98;;;11.00;42.60;;;;;;5071551;28;20046;-66
2022/02/24 10:26:29;;;;;;;3.88;1.77;;;11.00;48.70;;;;;;5085570;28;20040;-59
2022/02/24 10:29:53;;;;;;;11.48;3.08;;;10.80;43.70;;;;;;5089203;28;20032;-59
2022/02/24 10:33:19;;;;;;;3.97;1.92;;;10.60;46.00;;;;;;5068602;28;20476;-59
2022/02/24 10:36:44;;;;;;;4.30;1.88;;;10.30;47.40;;;;;;5083494;28;20055;-59
2022/02/24 10:40:09;;;;;;;7.30;1.95;;;10.40;49.10;;;;;;5047884;28;20033;-59
2022/02/24 10:43:39;;;;;;;3.50;1.67;;;10.40;48.90;;;;;;5079569;28;20463;-59
2022/02/24 10:46:23;;;;;;;4.78;1.98;;;10.60;50.50;;;;;;5083832;28;20034;-60
2022/02/24 10:48:54;;;;;;;5.15;1.80;;;10.80;54.70;;;;;;5089139;28;20044;-59
2022/02/24 10:51:34;;;;;;;6.68;2.05;;;10.80;48.30;;;;;;5086878;28;20479;-59
2022/02/24 10:54:05;;;;;;;5.72;2.60;;;10.80;50.00;;;;;;5089430;28;20111;-59
2022/02/24 10:56:33;;;;;;;4.18;1.90;;;10.80;51.20;;;;;;5058865;28;20035;-59
2022/02/24 10:58:58;;;;;;;8.82;2.30;;;10.90;55.10;;;;;;5089037;28;20130;-59
2022/02/24 11:01:26;;;;;;;4.47;2.20;;;11.00;53.50;;;;;;5086780;28;20047;-59
2022/02/24 11:03:54;;;;;;;6.00;2.90;;;11.00;53.70;;;;;;5088994;28;20028;-59
2022/02/24 11:06:21;;;;;;;7.75;2.85;;;11.10;51.30;;;;;;5086699;28;20546;-59
2022/02/24 11:08:48;;;;;;;8.57;2.40;;;10.90;52.60;;;;;;5089098;28;20016;-59
2022/02/24 11:11:28;;;;;;;6.63;2.50;;;10.90;52.10;;;;;;5086792;28;20028;-59
2022/02/24 11:13:55;;;;;;;7.57;2.90;;;10.90;52.10;;;;;;5089058;28;20034;-60
2022/02/24 11:16:22;;;;;;;4.53;2.40;;;10.80;54.80;;;;;;5087117;28;20065;-59
2022/02/24 11:18:48;;;;;;;8.25;3.03;;;10.80;55.00;;;;;;5088770;28;20469;-59
2022/02/24 11:21:15;;;;;;;10.35;2.92;;;10.80;54.80;;;;;;5086669;28;20047;-59
2022/02/24 11:23:43;;;;;;;10.07;4.30;;;10.80;57.50;;;;;;5088517;28;20101;-59
2022/02/24 11:26:21;;;;;;;7.28;3.35;;;10.80;53.30;;;;;;5089944;28;20097;-59
2022/02/24 11:28:49;;;;;;;9.57;3.88;;;10.80;54.80;;;;;;5093099;28;20024;-59
2022/02/24 11:31:30;;;;;;;11.27;3.70;;;10.90;57.60;;;;;;5090668;28;20027;-59
2022/02/24 11:33:55;;;;;;;10.38;3.17;;;10.90;56.90;;;;;;5093173;28;20502;-59
2022/02/24 11:36:21;;;;;;;8.00;3.40;;;10.90;56.80;;;;;;5090608;28;20024;-59
2022/02/24 11:39:13;;;;;;;6.97;3.03;;;10.90;53.80;;;;;;5093061;28;20115;-59
2022/02/24 11:41:45;;;;;;;10.55;2.90;;;10.80;49.80;;;;;;5087115;28;20042;-59
2022/02/24 11:44:47;;;;;;;9.85;3.78;;;10.80;54.50;;;;;;5092691;28;20039;-59
2022/02/24 11:47:12;;;;;;;9.32;3.55;;;10.80;52.10;;;;;;5073936;28;20020;-59
2022/02/24 11:49:59;;;;;;;12.63;5.15;;;10.80;56.00;;;;;;5092489;28;20513;-59
2022/02/24 11:52:45;;;;;;;7.13;2.65;;;10.80;53.40;;;;;;5077070;28;20025;-59
2022/02/24 11:55:50;;;;;;;5.23;2.13;;;10.90;53.50;;;;;;5051028;28;20506;-59
2022/02/24 11:58:33;;;;;;;6.55;2.45;;;10.80;54.70;;;;;;5052138;28;20260;-59
2022/02/24 12:01:09;;;;;;;5.30;2.10;;;10.90;53.10;;;;;;5089983;28;20116;-59
2022/02/24 12:03:44;;;;;;;4.32;1.90;;;10.90;51.70;;;;;;5092312;28;20393;-59
2022/02/24 12:06:12;;;;;;;5.78;2.88;;;11.00;51.90;;;;;;5071899;28;20668;-59
2022/02/24 12:09:08;;;;;;;5.07;2.05;;;11.00;54.40;;;;;;5092667;28;20040;-59
2022/02/24 12:11:40;;;;;;;3.65;1.95;;;11.00;50.60;;;;;;5089860;28;20593;-59
2022/02/24 12:14:24;;;;;;;5.10;2.47;;;11.00;51.70;;;;;;5090203;28;20081;-59
2022/02/24 12:17:32;;;;;;;9.05;4.05;;;11.20;51.30;;;;;;5092255;28;20384;-58
2022/02/24 12:21:00;;;;;;;14.27;5.18;;;11.30;51.70;;;;;;5080145;28;20032;-59
2022/02/24 12:24:05;;;;;;;;;;;11.40;50.40;;;;;;5063412;28;20428;-59
2022/02/24 12:27:49;;;;;;;7.10;2.80;;;11.40;46.90;;;;;;5077131;28;20376;-59
2022/02/24 12:31:17;;;;;;;4.28;2.25;;;11.50;48.90;;;;;;5050526;28;20378;-60
2022/02/24 12:34:22;;;;;;;;;;;11.30;47.30;;;;;;5082953;28;20039;-59
2022/02/24 12:37:48;;;;;;;5.47;2.17;;;11.20;47.80;;;;;;5076492;28;19966;-59
2022/02/24 12:41:16;;;;;;;6.80;1.80;;;11.20;51.10;;;;;;5050356;28;20126;-59
2022/02/24 12:44:22;;;;;;;;;;;11.10;48.30;;;;;;5087764;28;20032;-59
2022/02/24 12:47:47;;;;;;;5.30;2.00;;;11.00;48.60;;;;;;5055089;28;19907;-59
2022/02/24 12:51:12;;;;;;;5.90;1.55;;;10.90;49.70;;;;;;5050313;28;20033;-59
2022/02/24 12:54:38;;;;;;;5.55;1.80;;;11.00;49.70;;;;;;5085992;28;20040;-59
2022/02/24 12:58:03;;;;;;;6.10;2.38;;;11.10;51.60;;;;;;5084520;28;20036;-59
2022/02/24 13:01:28;;;;;;;4.10;2.10;;;11.00;48.50;;;;;;5049757;28;20041;-59
2022/02/24 13:04:54;;;;;;;4.93;2.35;;;11.10;50.60;;;;;;5078406;28;20028;-60
2022/02/24 13:11:55;;;;;;;8.05;2.70;;;11.10;49.20;;;;;;5073167;28;20082;-60
2022/02/24 13:15:21;;;;;;;3.88;1.55;;;11.10;48.10;;;;;;5079039;28;20040;-60
2022/02/24 13:18:46;;;;;;;4.30;2.25;;;11.00;50.60;;;;;;5065167;28;20407;-59
2022/02/24 13:22:11;;;;;;;5.00;2.08;;;11.00;51.20;;;;;;5086097;28;20043;-59
2022/02/24 13:25:37;;;;;;;4.30;2.38;;;10.90;51.00;;;;;;5083506;28;20519;-59
2022/02/24 13:28:26;;;;;;;5.00;2.03;;;10.90;52.50;;;;;;5063813;28;20056;-59
2022/02/24 13:30:59;;;;;;;6.40;2.60;;;10.90;53.50;;;;;;5087446;28;20035;-58
2022/02/24 13:33:35;;;;;;;5.72;2.30;;;11.00;52.80;;;;;;5049602;28;20743;-59
2022/02/24 13:36:40;;;;;;;3.78;1.60;;;10.90;52.90;;;;;;5049012;28;20625;-59
2022/02/24 13:40:09;;;;;;;2.30;1.50;;;10.80;54.50;;;;;;5086189;28;20028;-59
2022/02/24 13:43:23;;;;;;;;;;;10.80;55.30;;;;;;5078557;28;20040;-59
2022/02/24 13:46:58;;;;;;;6.20;1.95;;;10.80;53.60;;;;;;5052571;28;19909;-59
2022/02/24 13:50:23;;;;;;;5.25;1.75;;;10.90;53.80;;;;;;5088293;28;20036;-59
2022/02/24 13:53:49;;;;;;;4.18;1.65;;;10.90;54.00;;;;;;5085533;28;20637;-58
2022/02/24 13:57:20;;;;;;;7.10;2.03;;;11.00;54.60;;;;;;5081488;28;20085;-59
2022/02/24 14:00:46;;;;;;;3.80;1.67;;;10.90;53.80;;;;;;5077815;28;20442;-59
2022/02/24 14:04:14;;;;;;;4.53;1.65;;;10.90;53.10;;;;;;5085603;28;20036;-59
2022/02/24 14:07:37;;;;;;;3.13;1.50;;;11.00;54.40;;;;;;5069880;28;20070;-59
2022/02/24 14:11:02;;;;;;;6.40;1.92;;;10.90;54.30;;;;;;5077967;28;20024;-59
2022/02/24 14:14:28;;;;;;;2.30;1.30;;;10.90;53.70;;;;;;5074045;28;20031;-59
2022/02/24 14:17:53;;;;;;;5.70;1.52;;;10.80;53.50;;;;;;5071670;28;20037;-58
2022/02/24 14:21:18;;;;;;;3.05;1.33;;;10.80;54.00;;;;;;5082997;28;20470;-59
2022/02/24 14:24:44;;;;;;;6.13;2.22;;;10.70;53.60;;;;;;5077357;28;20083;-58
2022/02/24 14:28:09;;;;;;;4.43;1.67;;;10.60;54.10;;;;;;5068027;28;20507;-58
2022/02/24 14:31:34;;;;;;;3.10;1.15;;;10.50;53.70;;;;;;5075516;28;20024;-59
2022/02/24 14:35:00;;;;;;;3.53;1.48;;;10.60;55.70;;;;;;5088319;28;20036;-59
2022/02/24 14:38:25;;;;;;;5.32;1.48;;;10.60;56.10;;;;;;5077812;28;20044;-58
2022/02/24 14:41:50;;;;;;;4.30;1.33;;;10.60;56.00;;;;;;5080772;28;20537;-59
2022/02/24 14:45:16;;;;;;;4.45;1.60;;;10.60;57.30;;;;;;5048137;28;20113;-59
2022/02/24 14:48:41;;;;;;;4.35;1.45;;;10.60;55.00;;;;;;5082376;28;20044;-59
2022/02/24 14:52:06;;;;;;;3.80;1.33;;;10.50;57.60;;;;;;5080504;28;20411;-59
2022/02/24 14:55:33;;;;;;;5.13;1.40;;;10.40;58.10;;;;;;5048197;28;20071;-59
2022/02/24 14:58:57;;;;;;;7.28;2.17;;;10.30;58.90;;;;;;5076680;28;20503;-60
2022/02/24 15:02:27;;;;;;;1.63;1.30;;;10.30;60.40;;;;;;5082301;28;20048;-59
2022/02/24 15:05:50;;;;;;;3.80;1.70;;;10.20;61.70;;;;;;5047702;28;20369;-59
2022/02/24 15:09:16;;;;;;;6.07;2.25;;;10.20;60.90;;;;;;5082174;28;20400;-59
2022/02/24 15:12:42;;;;;;;7.50;3.08;;;10.10;62.30;;;;;;5065382;28;20110;-59
2022/02/24 15:16:07;;;;;;;5.40;2.03;;;10.10;62.50;;;;;;5076536;28;20040;-59
2022/02/24 15:19:32;;;;;;;4.75;1.67;;;10.10;62.90;;;;;;5076764;28;20043;-59
2022/02/24 15:22:57;;;;;;;3.72;1.65;;;10.00;64.40;;;;;;5068394;28;20500;-60
2022/02/24 15:26:23;;;;;;;3.35;1.38;;;10.00;65.60;;;;;;5047495;28;20068;-59
2022/02/24 15:29:48;;;;;;;3.60;1.48;;;10.00;65.80;;;;;;5047849;28;20087;-59
2022/02/24 15:33:13;;;;;;;6.57;1.85;;;9.90;66.80;;;;;;5060109;28;20032;-59
2022/02/24 15:36:39;;;;;;;3.72;1.27;;;9.90;67.10;;;;;;5047849;28;20051;-59
2022/02/24 15:40:04;;;;;;;6.85;1.83;;;9.90;66.60;;;;;;5087263;28;20094;-60
2022/02/24 15:43:29;;;;;;;3.65;1.70;;;9.80;68.60;;;;;;5062108;28;20054;-60
2022/02/24 15:46:55;;;;;;;3.83;1.63;;;9.80;68.80;;;;;;5074699;28;20028;-59
2022/02/24 15:50:20;;;;;;;7.72;1.75;;;9.70;70.20;;;;;;5087505;28;20040;-59
2022/02/24 15:53:46;;;;;;;3.38;1.77;;;9.70;69.50;;;;;;5083013;28;20408;-59
2022/02/24 15:57:11;;;;;;;4.55;1.70;;;9.70;70.40;;;;;;5082124;28;20028;-59
2022/02/24 16:00:36;;;;;;;3.95;1.30;;;9.60;72.40;;;;;;5076352;28;20495;-59
2022/02/24 16:04:02;;;;;;;5.45;1.65;;;9.60;71.40;;;;;;5047184;28;20048;-59
2022/02/24 16:07:27;;;;;;;3.70;1.27;;;9.60;72.10;;;;;;5082023;28;20047;-59
2022/02/24 16:10:52;;;;;;;5.40;1.70;;;9.50;72.30;;;;;;5083821;28;20046;-58
2022/02/24 16:14:18;;;;;;;3.35;1.65;;;9.50;71.90;;;;;;5087780;28;20040;-59
2022/02/24 16:17:43;;;;;;;3.17;1.63;;;9.50;72.70;;;;;;5073696;28;20036;-62
2022/02/24 16:21:08;;;;;;;3.60;1.63;;;9.50;73.70;;;;;;5085372;28;20032;-63
2022/02/24 16:24:34;;;;;;;2.35;1.60;;;9.50;73.90;;;;;;5069022;28;20052;-63
2022/02/24 16:27:59;;;;;;;3.63;1.65;;;9.60;75.90;;;;;;5065412;28;20495;-62
2022/02/24 16:31:23;;;;;;;4.63;2.03;;;9.60;76.90;;;;;;5069299;28;20036;-62
2022/02/24 16:34:49;;;;;;;2.75;1.35;;;9.60;77.40;;;;;;5077879;28;20044;-63
2022/02/24 16:38:14;;;;;;;3.75;1.25;;;9.60;78.80;;;;;;5050842;28;20040;-65
2022/02/24 16:41:39;;;;;;;4.25;1.10;;;9.70;74.00;;;;;;5065794;28;20040;-63
2022/02/24 16:45:05;;;;;;;5.05;1.50;;;9.60;76.10;;;;;;5082652;28;20039;-64
2022/02/24 16:47:51;;;;;;;2.20;1.20;;;9.60;75.20;;;;;;5076326;28;20054;-63
2022/02/24 16:50:17;;;;;;;7.40;1.85;;;9.70;70.40;;;;;;5088770;28;20056;-63
2022/02/24 16:52:42;;;;;;;6.40;2.15;;;9.70;70.10;;;;;;5090575;28;20466;-62
2022/02/24 16:55:09;;;;;;;4.78;1.65;;;9.60;70.60;;;;;;5088845;28;20185;-62
2022/02/24 16:57:34;;;;;;;4.15;1.80;;;9.60;69.40;;;;;;5090590;28;20044;-63
2022/02/24 17:00:40;;;;;;;3.70;1.70;;;9.60;69.90;;;;;;5088660;28;20024;-63
2022/02/24 17:04:05;;;;;;;2.42;1.10;;;9.60;70.80;;;;;;5078816;28;20515;-64
2022/02/24 17:07:31;;;;;;;4.93;1.83;;;9.60;70.20;;;;;;5089018;28;20036;-63
2022/02/24 17:10:56;;;;;;;3.22;1.80;;;9.60;70.70;;;;;;5065972;28;20051;-65